sensor_id;sensor_type;location;lat;lon;timestamp;P1;durP1;ratioP1;P2;durP2;ratioP2
59790;SDS011;47431;51.640;5.554;2023-11-25T00:00:50;14.45;;;3.03;;
59790;SDS011;47431;51.640;5.554;2023-11-25T00:03:16;13.25;;;2.53;;
59790;SDS011;47431;51.640;5.554;2023-11-25T00:05:42;14.77;;;2.85;;
59790;SDS011;47431;51.640;5.554;2023-11-25T00:08:07;10.10;;;2.03;;
59790;SDS011;47431;51.640;5.554;2023-11-25T00:10:33;11.05;;;3.13;;
59790;SDS011;47431;51.640;5.554;2023-11-25T00:12:59;12.95;;;2.22;;
59790;SDS011;47431;51.640;5.554;2023-11-25T00:15:25;13.50;;;4.43;;
59790;SDS011;47431;51.640;5.554;2023-11-25T00:17:51;20.05;;;3.67;;
59790;SDS011;47431;51.640;5.554;2023-11-25T00:20:17;10.70;;;2.88;;
59790;SDS011;47431;51.640;5.554;2023-11-25T00:22:43;14.40;;;2.72;;
59790;SDS011;47431;51.640;5.554;2023-11-25T00:25:09;8.18;;;2.35;;
59790;SDS011;47431;51.640;5.554;2023-11-25T00:27:35;15.75;;;4.50;;
59790;SDS011;47431;51.640;5.554;2023-11-25T00:30:04;8.63;;;2.22;;
59790;SDS011;47431;51.640;5.554;2023-11-25T00:32:31;9.02;;;2.65;;
59790;SDS011;47431;51.640;5.554;2023-11-25T00:35:02;9.50;;;2.42;;
59790;SDS011;47431;51.640;5.554;2023-11-25T00:37:30;18.05;;;4.60;;
59790;SDS011;47431;51.640;5.554;2023-11-25T00:39:56;13.07;;;3.30;;
59790;SDS011;47431;51.640;5.554;2023-11-25T00:42:23;14.13;;;3.28;;
59790;SDS011;47431;51.640;5.554;2023-11-25T00:44:48;14.55;;;3.03;;
59790;SDS011;47431;51.640;5.554;2023-11-25T00:47:13;23.40;;;4.35;;
59790;SDS011;47431;51.640;5.554;2023-11-25T00:49:39;10.65;;;2.85;;
59790;SDS011;47431;51.640;5.554;2023-11-25T00:52:06;16.35;;;4.80;;
59790;SDS011;47431;51.640;5.554;2023-11-25T00:54:32;17.50;;;2.92;;
59790;SDS011;47431;51.640;5.554;2023-11-25T00:56:58;16.27;;;4.97;;
59790;SDS011;47431;51.640;5.554;2023-11-25T00:59:26;21.65;;;4.85;;
59790;SDS011;47431;51.640;5.554;2023-11-25T01:01:51;19.50;;;4.93;;
59790;SDS011;47431;51.640;5.554;2023-11-25T01:04:17;21.52;;;4.95;;
59790;SDS011;47431;51.640;5.554;2023-11-25T01:06:46;19.88;;;4.10;;
59790;SDS011;47431;51.640;5.554;2023-11-25T01:09:12;45.47;;;5.07;;
59790;SDS011;47431;51.640;5.554;2023-11-25T01:11:40;23.17;;;5.55;;
59790;SDS011;47431;51.640;5.554;2023-11-25T01:14:06;18.25;;;4.15;;
59790;SDS011;47431;51.640;5.554;2023-11-25T01:16:33;29.35;;;6.07;;
59790;SDS011;47431;51.640;5.554;2023-11-25T01:18:58;27.30;;;5.32;;
59790;SDS011;47431;51.640;5.554;2023-11-25T01:21:24;29.95;;;5.07;;
59790;SDS011;47431;51.640;5.554;2023-11-25T01:23:49;24.67;;;4.82;;
59790;SDS011;47431;51.640;5.554;2023-11-25T01:26:14;31.48;;;5.60;;
59790;SDS011;47431;51.640;5.554;2023-11-25T01:28:40;18.40;;;4.63;;
59790;SDS011;47431;51.640;5.554;2023-11-25T01:31:07;25.33;;;4.73;;
59790;SDS011;47431;51.640;5.554;2023-11-25T01:33:36;30.50;;;5.97;;
59790;SDS011;47431;51.640;5.554;2023-11-25T01:36:02;22.25;;;7.00;;
59790;SDS011;47431;51.640;5.554;2023-11-25T01:38:28;19.65;;;4.75;;
59790;SDS011;47431;51.640;5.554;2023-11-25T01:40:54;18.35;;;4.53;;
59790;SDS011;47431;51.640;5.554;2023-11-25T01:43:21;28.52;;;4.93;;
59790;SDS011;47431;51.640;5.554;2023-11-25T01:45:50;21.60;;;4.68;;
59790;SDS011;47431;51.640;5.554;2023-11-25T01:48:20;23.02;;;4.80;;
59790;SDS011;47431;51.640;5.554;2023-11-25T01:50:47;25.00;;;5.78;;
59790;SDS011;47431;51.640;5.554;2023-11-25T01:53:14;29.23;;;5.80;;
59790;SDS011;47431;51.640;5.554;2023-11-25T01:55:42;19.90;;;4.90;;
59790;SDS011;47431;51.640;5.554;2023-11-25T01:58:09;24.70;;;5.70;;
59790;SDS011;47431;51.640;5.554;2023-11-25T02:00:35;26.00;;;4.43;;
59790;SDS011;47431;51.640;5.554;2023-11-25T02:03:03;20.35;;;4.10;;
59790;SDS011;47431;51.640;5.554;2023-11-25T02:05:30;24.25;;;4.47;;
59790;SDS011;47431;51.640;5.554;2023-11-25T02:07:56;18.08;;;3.72;;
59790;SDS011;47431;51.640;5.554;2023-11-25T02:10:21;20.90;;;4.47;;
59790;SDS011;47431;51.640;5.554;2023-11-25T02:12:47;34.35;;;4.32;;
59790;SDS011;47431;51.640;5.554;2023-11-25T02:15:12;17.95;;;3.78;;
59790;SDS011;47431;51.640;5.554;2023-11-25T02:17:43;18.42;;;5.50;;
59790;SDS011;47431;51.640;5.554;2023-11-25T02:20:10;21.60;;;4.50;;
59790;SDS011;47431;51.640;5.554;2023-11-25T02:22:39;17.98;;;4.35;;
59790;SDS011;47431;51.640;5.554;2023-11-25T02:25:17;29.67;;;5.50;;
59790;SDS011;47431;51.640;5.554;2023-11-25T02:27:42;17.77;;;3.55;;
59790;SDS011;47431;51.640;5.554;2023-11-25T02:30:08;29.40;;;4.15;;
59790;SDS011;47431;51.640;5.554;2023-11-25T02:32:34;11.35;;;4.35;;
59790;SDS011;47431;51.640;5.554;2023-11-25T02:34:59;19.58;;;3.05;;
59790;SDS011;47431;51.640;5.554;2023-11-25T02:37:25;28.87;;;4.60;;
59790;SDS011;47431;51.640;5.554;2023-11-25T02:39:51;20.45;;;3.97;;
59790;SDS011;47431;51.640;5.554;2023-11-25T02:42:16;16.40;;;4.35;;
59790;SDS011;47431;51.640;5.554;2023-11-25T02:44:42;20.33;;;3.47;;
59790;SDS011;47431;51.640;5.554;2023-11-25T02:47:08;25.47;;;4.47;;
59790;SDS011;47431;51.640;5.554;2023-11-25T02:49:33;16.90;;;3.23;;
59790;SDS011;47431;51.640;5.554;2023-11-25T02:51:59;39.77;;;4.43;;
59790;SDS011;47431;51.640;5.554;2023-11-25T02:54:24;16.02;;;4.20;;
59790;SDS011;47431;51.640;5.554;2023-11-25T02:56:50;24.08;;;2.75;;
59790;SDS011;47431;51.640;5.554;2023-11-25T02:59:18;16.70;;;5.10;;
59790;SDS011;47431;51.640;5.554;2023-11-25T03:01:44;20.65;;;4.55;;
59790;SDS011;47431;51.640;5.554;2023-11-25T03:04:18;27.13;;;4.10;;
59790;SDS011;47431;51.640;5.554;2023-11-25T03:06:51;19.40;;;2.60;;
59790;SDS011;47431;51.640;5.554;2023-11-25T03:09:17;17.57;;;3.83;;
59790;SDS011;47431;51.640;5.554;2023-11-25T03:11:42;19.40;;;4.40;;
59790;SDS011;47431;51.640;5.554;2023-11-25T03:14:08;17.13;;;3.47;;
59790;SDS011;47431;51.640;5.554;2023-11-25T03:16:34;28.10;;;3.70;;
59790;SDS011;47431;51.640;5.554;2023-11-25T03:18:59;11.27;;;2.50;;
59790;SDS011;47431;51.640;5.554;2023-11-25T03:21:25;14.60;;;3.33;;
59790;SDS011;47431;51.640;5.554;2023-11-25T03:23:51;18.23;;;3.13;;
59790;SDS011;47431;51.640;5.554;2023-11-25T03:26:17;27.23;;;5.30;;
59790;SDS011;47431;51.640;5.554;2023-11-25T03:28:42;26.63;;;3.97;;
59790;SDS011;47431;51.640;5.554;2023-11-25T03:31:09;26.17;;;5.40;;
59790;SDS011;47431;51.640;5.554;2023-11-25T03:33:35;20.93;;;6.23;;
59790;SDS011;47431;51.640;5.554;2023-11-25T03:36:02;32.23;;;6.77;;
59790;SDS011;47431;51.640;5.554;2023-11-25T03:38:28;27.07;;;5.10;;
59790;SDS011;47431;51.640;5.554;2023-11-25T03:40:54;27.53;;;5.40;;
59790;SDS011;47431;51.640;5.554;2023-11-25T03:43:20;22.40;;;5.97;;
59790;SDS011;47431;51.640;5.554;2023-11-25T03:45:49;30.60;;;5.67;;
59790;SDS011;47431;51.640;5.554;2023-11-25T03:48:15;21.87;;;5.97;;
59790;SDS011;47431;51.640;5.554;2023-11-25T03:50:41;29.23;;;6.63;;
59790;SDS011;47431;51.640;5.554;2023-11-25T03:53:06;21.23;;;4.70;;
59790;SDS011;47431;51.640;5.554;2023-11-25T03:55:31;28.43;;;6.30;;
59790;SDS011;47431;51.640;5.554;2023-11-25T03:58:00;21.83;;;3.70;;
59790;SDS011;47431;51.640;5.554;2023-11-25T04:00:27;27.90;;;6.13;;
59790;SDS011;47431;51.640;5.554;2023-11-25T04:02:52;26.83;;;6.23;;
59790;SDS011;47431;51.640;5.554;2023-11-25T04:05:18;33.50;;;6.83;;
59790;SDS011;47431;51.640;5.554;2023-11-25T04:07:44;24.87;;;6.50;;
59790;SDS011;47431;51.640;5.554;2023-11-25T04:10:11;37.10;;;7.22;;
59790;SDS011;47431;51.640;5.554;2023-11-25T04:12:41;34.90;;;7.40;;
59790;SDS011;47431;51.640;5.554;2023-11-25T04:15:08;26.10;;;6.65;;
59790;SDS011;47431;51.640;5.554;2023-11-25T04:17:35;32.55;;;5.97;;
59790;SDS011;47431;51.640;5.554;2023-11-25T04:20:01;27.03;;;7.30;;
59790;SDS011;47431;51.640;5.554;2023-11-25T04:22:27;28.88;;;6.32;;
59790;SDS011;47431;51.640;5.554;2023-11-25T04:24:52;28.23;;;5.22;;
59790;SDS011;47431;51.640;5.554;2023-11-25T04:27:18;20.23;;;6.00;;
59790;SDS011;47431;51.640;5.554;2023-11-25T04:29:43;30.63;;;6.60;;
59790;SDS011;47431;51.640;5.554;2023-11-25T04:32:09;23.90;;;6.60;;
59790;SDS011;47431;51.640;5.554;2023-11-25T04:34:34;22.77;;;6.00;;
59790;SDS011;47431;51.640;5.554;2023-11-25T04:37:00;22.52;;;5.32;;
59790;SDS011;47431;51.640;5.554;2023-11-25T04:39:25;25.17;;;4.80;;
59790;SDS011;47431;51.640;5.554;2023-11-25T04:41:51;38.30;;;6.93;;
59790;SDS011;47431;51.640;5.554;2023-11-25T04:44:16;31.85;;;6.22;;
59790;SDS011;47431;51.640;5.554;2023-11-25T04:46:43;20.45;;;3.95;;
59790;SDS011;47431;51.640;5.554;2023-11-25T04:49:10;32.10;;;5.22;;
59790;SDS011;47431;51.640;5.554;2023-11-25T04:51:36;29.08;;;5.13;;
59790;SDS011;47431;51.640;5.554;2023-11-25T04:54:02;24.90;;;5.78;;
59790;SDS011;47431;51.640;5.554;2023-11-25T04:56:28;19.77;;;4.97;;
59790;SDS011;47431;51.640;5.554;2023-11-25T04:58:53;16.30;;;3.67;;
59790;SDS011;47431;51.640;5.554;2023-11-25T05:01:18;13.32;;;3.50;;
59790;SDS011;47431;51.640;5.554;2023-11-25T05:03:44;21.30;;;4.05;;
59790;SDS011;47431;51.640;5.554;2023-11-25T05:06:10;19.30;;;3.17;;
59790;SDS011;47431;51.640;5.554;2023-11-25T05:08:35;17.40;;;3.28;;
59790;SDS011;47431;51.640;5.554;2023-11-25T05:11:01;16.13;;;2.97;;
59790;SDS011;47431;51.640;5.554;2023-11-25T05:13:26;14.38;;;2.53;;
59790;SDS011;47431;51.640;5.554;2023-11-25T05:15:52;14.68;;;3.00;;
59790;SDS011;47431;51.640;5.554;2023-11-25T05:18:18;10.13;;;2.38;;
59790;SDS011;47431;51.640;5.554;2023-11-25T05:20:44;12.18;;;2.92;;
59790;SDS011;47431;51.640;5.554;2023-11-25T05:23:09;13.05;;;2.08;;
59790;SDS011;47431;51.640;5.554;2023-11-25T05:25:34;15.02;;;3.42;;
59790;SDS011;47431;51.640;5.554;2023-11-25T05:28:03;10.65;;;2.63;;
59790;SDS011;47431;51.640;5.554;2023-11-25T05:30:28;11.52;;;2.50;;
59790;SDS011;47431;51.640;5.554;2023-11-25T05:32:54;8.35;;;2.63;;
59790;SDS011;47431;51.640;5.554;2023-11-25T05:35:19;13.35;;;2.60;;
59790;SDS011;47431;51.640;5.554;2023-11-25T05:37:45;7.88;;;1.67;;
59790;SDS011;47431;51.640;5.554;2023-11-25T05:40:10;11.88;;;2.95;;
59790;SDS011;47431;51.640;5.554;2023-11-25T05:42:37;10.77;;;2.70;;
59790;SDS011;47431;51.640;5.554;2023-11-25T05:45:07;15.45;;;2.97;;
59790;SDS011;47431;51.640;5.554;2023-11-25T05:47:36;11.52;;;1.90;;
59790;SDS011;47431;51.640;5.554;2023-11-25T05:50:01;8.60;;;2.10;;
59790;SDS011;47431;51.640;5.554;2023-11-25T05:52:28;10.52;;;1.90;;
59790;SDS011;47431;51.640;5.554;2023-11-25T05:54:54;17.48;;;2.45;;
59790;SDS011;47431;51.640;5.554;2023-11-25T05:57:20;9.38;;;2.78;;
59790;SDS011;47431;51.640;5.554;2023-11-25T05:59:46;12.73;;;2.58;;
59790;SDS011;47431;51.640;5.554;2023-11-25T06:02:12;7.30;;;1.70;;
59790;SDS011;47431;51.640;5.554;2023-11-25T06:04:38;15.63;;;2.42;;
59790;SDS011;47431;51.640;5.554;2023-11-25T06:07:03;13.98;;;2.92;;
59790;SDS011;47431;51.640;5.554;2023-11-25T06:09:29;9.15;;;1.67;;
59790;SDS011;47431;51.640;5.554;2023-11-25T06:11:54;11.95;;;2.85;;
59790;SDS011;47431;51.640;5.554;2023-11-25T06:14:20;14.68;;;2.63;;
59790;SDS011;47431;51.640;5.554;2023-11-25T06:16:46;16.65;;;2.95;;
59790;SDS011;47431;51.640;5.554;2023-11-25T06:19:13;16.65;;;2.95;;
59790;SDS011;47431;51.640;5.554;2023-11-25T06:21:42;14.02;;;2.70;;
59790;SDS011;47431;51.640;5.554;2023-11-25T06:24:08;16.98;;;2.40;;
59790;SDS011;47431;51.640;5.554;2023-11-25T06:26:33;14.10;;;2.95;;
59790;SDS011;47431;51.640;5.554;2023-11-25T06:29:00;11.90;;;3.20;;
59790;SDS011;47431;51.640;5.554;2023-11-25T06:31:25;11.13;;;3.10;;
59790;SDS011;47431;51.640;5.554;2023-11-25T06:33:51;13.35;;;2.55;;
59790;SDS011;47431;51.640;5.554;2023-11-25T06:36:17;10.90;;;2.88;;
59790;SDS011;47431;51.640;5.554;2023-11-25T06:38:42;15.63;;;2.50;;
59790;SDS011;47431;51.640;5.554;2023-11-25T06:41:09;7.10;;;1.80;;
59790;SDS011;47431;51.640;5.554;2023-11-25T06:43:36;12.88;;;2.15;;
59790;SDS011;47431;51.640;5.554;2023-11-25T06:46:03;16.40;;;2.88;;
59790;SDS011;47431;51.640;5.554;2023-11-25T06:48:29;24.73;;;4.60;;
59790;SDS011;47431;51.640;5.554;2023-11-25T06:50:55;21.63;;;3.65;;
59790;SDS011;47431;51.640;5.554;2023-11-25T06:53:21;27.17;;;4.30;;
59790;SDS011;47431;51.640;5.554;2023-11-25T06:55:47;34.15;;;4.65;;
59790;SDS011;47431;51.640;5.554;2023-11-25T06:58:13;29.15;;;5.82;;
59790;SDS011;47431;51.640;5.554;2023-11-25T07:00:39;18.20;;;4.63;;
59790;SDS011;47431;51.640;5.554;2023-11-25T07:03:05;25.70;;;5.50;;
59790;SDS011;47431;51.640;5.554;2023-11-25T07:05:32;21.55;;;4.50;;
59790;SDS011;47431;51.640;5.554;2023-11-25T07:07:58;17.65;;;5.50;;
59790;SDS011;47431;51.640;5.554;2023-11-25T07:10:23;22.17;;;4.32;;
59790;SDS011;47431;51.640;5.554;2023-11-25T07:12:49;15.93;;;4.40;;
59790;SDS011;47431;51.640;5.554;2023-11-25T07:15:15;14.70;;;3.25;;
59790;SDS011;47431;51.640;5.554;2023-11-25T07:17:41;19.20;;;4.75;;
59790;SDS011;47431;51.640;5.554;2023-11-25T07:20:07;16.27;;;2.95;;
59790;SDS011;47431;51.640;5.554;2023-11-25T07:22:40;16.30;;;3.25;;
59790;SDS011;47431;51.640;5.554;2023-11-25T07:25:06;16.13;;;3.33;;
59790;SDS011;47431;51.640;5.554;2023-11-25T07:27:36;19.30;;;3.33;;
59790;SDS011;47431;51.640;5.554;2023-11-25T07:30:08;8.85;;;2.40;;
59790;SDS011;47431;51.640;5.554;2023-11-25T07:32:34;14.38;;;2.53;;
59790;SDS011;47431;51.640;5.554;2023-11-25T07:35:00;8.98;;;2.03;;
59790;SDS011;47431;51.640;5.554;2023-11-25T07:37:26;17.17;;;3.50;;
59790;SDS011;47431;51.640;5.554;2023-11-25T07:39:52;17.17;;;3.97;;
59790;SDS011;47431;51.640;5.554;2023-11-25T07:42:18;19.48;;;2.95;;
59790;SDS011;47431;51.640;5.554;2023-11-25T07:44:43;17.52;;;3.50;;
59790;SDS011;47431;51.640;5.554;2023-11-25T07:47:09;19.92;;;4.20;;
59790;SDS011;47431;51.640;5.554;2023-11-25T07:49:34;15.30;;;3.95;;
59790;SDS011;47431;51.640;5.554;2023-11-25T07:52:00;13.95;;;3.88;;
59790;SDS011;47431;51.640;5.554;2023-11-25T07:54:26;16.15;;;3.53;;
59790;SDS011;47431;51.640;5.554;2023-11-25T07:56:51;12.73;;;2.08;;
59790;SDS011;47431;51.640;5.554;2023-11-25T07:59:17;10.80;;;2.30;;
59790;SDS011;47431;51.640;5.554;2023-11-25T08:01:43;10.80;;;2.70;;
59790;SDS011;47431;51.640;5.554;2023-11-25T08:04:12;10.63;;;2.05;;
59790;SDS011;47431;51.640;5.554;2023-11-25T08:06:37;13.02;;;2.63;;
59790;SDS011;47431;51.640;5.554;2023-11-25T08:09:03;12.73;;;2.13;;
59790;SDS011;47431;51.640;5.554;2023-11-25T08:11:28;9.40;;;1.75;;
59790;SDS011;47431;51.640;5.554;2023-11-25T08:13:57;8.38;;;2.90;;
59790;SDS011;47431;51.640;5.554;2023-11-25T08:16:22;14.32;;;3.03;;
59790;SDS011;47431;51.640;5.554;2023-11-25T08:18:48;14.13;;;3.00;;
59790;SDS011;47431;51.640;5.554;2023-11-25T08:21:13;13.88;;;3.72;;
59790;SDS011;47431;51.640;5.554;2023-11-25T08:23:40;10.55;;;2.38;;
59790;SDS011;47431;51.640;5.554;2023-11-25T08:26:16;13.65;;;2.28;;
59790;SDS011;47431;51.640;5.554;2023-11-25T08:28:45;5.85;;;2.03;;
59790;SDS011;47431;51.640;5.554;2023-11-25T08:31:10;8.52;;;2.08;;
59790;SDS011;47431;51.640;5.554;2023-11-25T08:33:39;18.77;;;4.10;;
59790;SDS011;47431;51.640;5.554;2023-11-25T08:36:05;11.98;;;2.78;;
59790;SDS011;47431;51.640;5.554;2023-11-25T08:38:31;11.85;;;2.95;;
59790;SDS011;47431;51.640;5.554;2023-11-25T08:40:56;15.75;;;3.58;;
59790;SDS011;47431;51.640;5.554;2023-11-25T08:43:22;16.75;;;2.75;;
59790;SDS011;47431;51.640;5.554;2023-11-25T08:45:48;19.30;;;3.58;;
59790;SDS011;47431;51.640;5.554;2023-11-25T08:48:14;11.20;;;2.50;;
59790;SDS011;47431;51.640;5.554;2023-11-25T08:50:39;19.35;;;3.70;;
59790;SDS011;47431;51.640;5.554;2023-11-25T08:53:05;9.13;;;2.08;;
59790;SDS011;47431;51.640;5.554;2023-11-25T08:55:33;16.75;;;2.42;;
59790;SDS011;47431;51.640;5.554;2023-11-25T08:57:58;8.95;;;2.30;;
59790;SDS011;47431;51.640;5.554;2023-11-25T09:00:23;7.13;;;2.15;;
59790;SDS011;47431;51.640;5.554;2023-11-25T09:02:49;6.60;;;1.63;;
59790;SDS011;47431;51.640;5.554;2023-11-25T09:05:18;13.20;;;3.50;;
59790;SDS011;47431;51.640;5.554;2023-11-25T09:07:50;9.68;;;2.00;;
59790;SDS011;47431;51.640;5.554;2023-11-25T09:10:22;10.52;;;1.95;;
59790;SDS011;47431;51.640;5.554;2023-11-25T09:12:48;10.95;;;2.85;;
59790;SDS011;47431;51.640;5.554;2023-11-25T09:15:16;9.60;;;2.28;;
59790;SDS011;47431;51.640;5.554;2023-11-25T09:17:41;11.27;;;2.35;;
59790;SDS011;47431;51.640;5.554;2023-11-25T09:20:07;11.52;;;3.03;;
59790;SDS011;47431;51.640;5.554;2023-11-25T09:22:37;15.20;;;2.78;;
59790;SDS011;47431;51.640;5.554;2023-11-25T09:25:05;8.45;;;2.30;;
59790;SDS011;47431;51.640;5.554;2023-11-25T09:27:31;13.18;;;2.67;;
59790;SDS011;47431;51.640;5.554;2023-11-25T09:29:56;14.95;;;2.03;;
59790;SDS011;47431;51.640;5.554;2023-11-25T09:32:23;5.20;;;1.52;;
59790;SDS011;47431;51.640;5.554;2023-11-25T09:34:49;8.25;;;2.33;;
59790;SDS011;47431;51.640;5.554;2023-11-25T09:37:14;13.32;;;2.63;;
59790;SDS011;47431;51.640;5.554;2023-11-25T09:39:40;8.95;;;2.28;;
59790;SDS011;47431;51.640;5.554;2023-11-25T09:42:06;9.27;;;2.55;;
59790;SDS011;47431;51.640;5.554;2023-11-25T09:44:31;10.10;;;2.53;;
59790;SDS011;47431;51.640;5.554;2023-11-25T09:46:57;9.40;;;2.03;;
59790;SDS011;47431;51.640;5.554;2023-11-25T09:49:23;12.02;;;2.38;;
59790;SDS011;47431;51.640;5.554;2023-11-25T09:51:48;14.07;;;2.45;;
59790;SDS011;47431;51.640;5.554;2023-11-25T09:54:20;9.48;;;2.17;;
59790;SDS011;47431;51.640;5.554;2023-11-25T09:56:49;13.55;;;2.38;;
59790;SDS011;47431;51.640;5.554;2023-11-25T09:59:15;8.15;;;1.70;;
59790;SDS011;47431;51.640;5.554;2023-11-25T10:01:43;14.40;;;2.10;;
59790;SDS011;47431;51.640;5.554;2023-11-25T10:04:10;10.50;;;2.15;;
59790;SDS011;47431;51.640;5.554;2023-11-25T10:06:37;10.32;;;2.10;;
59790;SDS011;47431;51.640;5.554;2023-11-25T10:09:03;11.02;;;2.92;;
59790;SDS011;47431;51.640;5.554;2023-11-25T10:11:31;12.50;;;2.78;;
59790;SDS011;47431;51.640;5.554;2023-11-25T10:13:57;6.88;;;1.63;;
59790;SDS011;47431;51.640;5.554;2023-11-25T10:16:27;7.85;;;2.50;;
59790;SDS011;47431;51.640;5.554;2023-11-25T10:18:55;6.80;;;2.22;;
59790;SDS011;47431;51.640;5.554;2023-11-25T10:21:21;8.73;;;2.25;;
59790;SDS011;47431;51.640;5.554;2023-11-25T10:23:47;5.97;;;2.00;;
59790;SDS011;47431;51.640;5.554;2023-11-25T10:26:16;6.28;;;1.48;;
59790;SDS011;47431;51.640;5.554;2023-11-25T10:28:45;10.63;;;2.50;;
59790;SDS011;47431;51.640;5.554;2023-11-25T10:31:11;5.53;;;1.15;;
59790;SDS011;47431;51.640;5.554;2023-11-25T10:33:39;5.82;;;1.38;;
59790;SDS011;47431;51.640;5.554;2023-11-25T10:36:08;12.65;;;2.65;;
59790;SDS011;47431;51.640;5.554;2023-11-25T10:38:38;9.02;;;2.10;;
59790;SDS011;47431;51.640;5.554;2023-11-25T10:41:04;12.85;;;2.97;;
59790;SDS011;47431;51.640;5.554;2023-11-25T10:43:34;9.65;;;1.95;;
59790;SDS011;47431;51.640;5.554;2023-11-25T10:46:00;15.02;;;2.97;;
59790;SDS011;47431;51.640;5.554;2023-11-25T10:48:27;7.65;;;1.70;;
59790;SDS011;47431;51.640;5.554;2023-11-25T10:50:53;10.23;;;2.38;;
59790;SDS011;47431;51.640;5.554;2023-11-25T10:53:18;12.00;;;2.22;;
59790;SDS011;47431;51.640;5.554;2023-11-25T10:55:47;9.18;;;2.28;;
59790;SDS011;47431;51.640;5.554;2023-11-25T10:58:14;8.52;;;2.20;;
59790;SDS011;47431;51.640;5.554;2023-11-25T11:00:40;11.05;;;2.20;;
59790;SDS011;47431;51.640;5.554;2023-11-25T11:03:08;8.88;;;1.70;;
59790;SDS011;47431;51.640;5.554;2023-11-25T11:05:41;13.10;;;2.53;;
59790;SDS011;47431;51.640;5.554;2023-11-25T11:08:17;16.00;;;3.00;;
59790;SDS011;47431;51.640;5.554;2023-11-25T11:10:49;11.73;;;2.08;;
59790;SDS011;47431;51.640;5.554;2023-11-25T11:13:22;16.38;;;3.03;;
59790;SDS011;47431;51.640;5.554;2023-11-25T11:15:51;9.48;;;2.47;;
59790;SDS011;47431;51.640;5.554;2023-11-25T11:18:22;12.93;;;2.45;;
59790;SDS011;47431;51.640;5.554;2023-11-25T11:20:48;13.43;;;3.22;;
59790;SDS011;47431;51.640;5.554;2023-11-25T11:23:17;15.52;;;2.03;;
59790;SDS011;47431;51.640;5.554;2023-11-25T11:33:57;7.60;;;2.30;;
59790;SDS011;47431;51.640;5.554;2023-11-25T11:36:29;17.40;;;3.20;;
59790;SDS011;47431;51.640;5.554;2023-11-25T11:38:56;10.90;;;2.95;;
59790;SDS011;47431;51.640;5.554;2023-11-25T11:44:06;19.13;;;3.78;;
59790;SDS011;47431;51.640;5.554;2023-11-25T11:46:35;9.15;;;3.42;;
59790;SDS011;47431;51.640;5.554;2023-11-25T11:49:08;12.55;;;2.58;;
59790;SDS011;47431;51.640;5.554;2023-11-25T11:51:37;15.53;;;4.60;;
59790;SDS011;47431;51.640;5.554;2023-11-25T11:54:35;10.38;;;3.15;;
59790;SDS011;47431;51.640;5.554;2023-11-25T12:02:27;15.80;;;3.05;;
59790;SDS011;47431;51.640;5.554;2023-11-25T12:04:54;14.55;;;4.13;;
59790;SDS011;47431;51.640;5.554;2023-11-25T12:07:20;9.60;;;2.28;;
59790;SDS011;47431;51.640;5.554;2023-11-25T12:09:46;10.77;;;2.38;;
59790;SDS011;47431;51.640;5.554;2023-11-25T12:12:12;16.38;;;3.22;;
59790;SDS011;47431;51.640;5.554;2023-11-25T12:14:37;15.75;;;4.13;;
59790;SDS011;47431;51.640;5.554;2023-11-25T12:17:04;11.52;;;2.38;;
59790;SDS011;47431;51.640;5.554;2023-11-25T12:19:29;11.10;;;2.40;;
59790;SDS011;47431;51.640;5.554;2023-11-25T12:21:55;19.15;;;4.13;;
59790;SDS011;47431;51.640;5.554;2023-11-25T12:24:21;14.73;;;2.35;;
59790;SDS011;47431;51.640;5.554;2023-11-25T12:26:46;11.30;;;2.17;;
59790;SDS011;47431;51.640;5.554;2023-11-25T12:29:18;11.95;;;2.65;;
59790;SDS011;47431;51.640;5.554;2023-11-25T12:31:48;15.35;;;2.63;;
59790;SDS011;47431;51.640;5.554;2023-11-25T12:34:14;12.20;;;2.70;;
59790;SDS011;47431;51.640;5.554;2023-11-25T12:36:40;15.40;;;3.80;;
59790;SDS011;47431;51.640;5.554;2023-11-25T12:39:07;16.45;;;4.32;;
59790;SDS011;47431;51.640;5.554;2023-11-25T12:41:38;14.35;;;2.55;;
59790;SDS011;47431;51.640;5.554;2023-11-25T12:44:04;9.27;;;3.72;;
59790;SDS011;47431;51.640;5.554;2023-11-25T12:49:21;16.02;;;3.13;;
59790;SDS011;47431;51.640;5.554;2023-11-25T12:51:48;12.75;;;2.50;;
59790;SDS011;47431;51.640;5.554;2023-11-25T12:54:15;10.32;;;2.30;;
59790;SDS011;47431;51.640;5.554;2023-11-25T12:56:41;14.35;;;3.65;;
59790;SDS011;47431;51.640;5.554;2023-11-25T12:59:27;11.63;;;2.05;;
59790;SDS011;47431;51.640;5.554;2023-11-25T13:02:10;8.75;;;1.73;;
59790;SDS011;47431;51.640;5.554;2023-11-25T13:04:44;10.52;;;2.42;;
59790;SDS011;47431;51.640;5.554;2023-11-25T13:07:31;14.57;;;3.58;;
59790;SDS011;47431;51.640;5.554;2023-11-25T13:09:58;9.50;;;2.25;;
59790;SDS011;47431;51.640;5.554;2023-11-25T13:12:23;13.77;;;3.45;;
59790;SDS011;47431;51.640;5.554;2023-11-25T13:14:49;12.63;;;2.88;;
59790;SDS011;47431;51.640;5.554;2023-11-25T13:17:15;6.70;;;2.25;;
59790;SDS011;47431;51.640;5.554;2023-11-25T13:19:41;10.85;;;2.17;;
59790;SDS011;47431;51.640;5.554;2023-11-25T13:22:08;14.18;;;2.95;;
59790;SDS011;47431;51.640;5.554;2023-11-25T13:24:35;13.82;;;2.65;;
59790;SDS011;47431;51.640;5.554;2023-11-25T13:27:01;11.57;;;2.65;;
59790;SDS011;47431;51.640;5.554;2023-11-25T13:29:29;14.18;;;3.30;;
59790;SDS011;47431;51.640;5.554;2023-11-25T13:31:54;8.02;;;2.38;;
59790;SDS011;47431;51.640;5.554;2023-11-25T13:34:21;10.52;;;3.03;;
59790;SDS011;47431;51.640;5.554;2023-11-25T13:36:47;10.18;;;2.33;;
59790;SDS011;47431;51.640;5.554;2023-11-25T13:39:12;8.55;;;1.52;;
59790;SDS011;47431;51.640;5.554;2023-11-25T13:41:44;9.10;;;2.20;;
59790;SDS011;47431;51.640;5.554;2023-11-25T13:44:11;7.13;;;1.98;;
59790;SDS011;47431;51.640;5.554;2023-11-25T13:46:37;7.38;;;1.92;;
59790;SDS011;47431;51.640;5.554;2023-11-25T13:49:03;12.55;;;2.58;;
59790;SDS011;47431;51.640;5.554;2023-11-25T13:51:28;7.32;;;2.13;;
59790;SDS011;47431;51.640;5.554;2023-11-25T13:53:53;6.30;;;1.75;;
59790;SDS011;47431;51.640;5.554;2023-11-25T13:56:19;11.73;;;2.13;;
59790;SDS011;47431;51.640;5.554;2023-11-25T13:58:44;9.32;;;2.53;;
59790;SDS011;47431;51.640;5.554;2023-11-25T14:01:10;10.88;;;2.60;;
59790;SDS011;47431;51.640;5.554;2023-11-25T14:03:36;11.20;;;2.95;;
59790;SDS011;47431;51.640;5.554;2023-11-25T14:06:01;13.35;;;3.47;;
59790;SDS011;47431;51.640;5.554;2023-11-25T14:08:28;12.77;;;2.58;;
59790;SDS011;47431;51.640;5.554;2023-11-25T14:10:54;12.10;;;2.47;;
59790;SDS011;47431;51.640;5.554;2023-11-25T14:13:20;17.63;;;3.10;;
59790;SDS011;47431;51.640;5.554;2023-11-25T14:15:46;10.98;;;2.67;;
59790;SDS011;47431;51.640;5.554;2023-11-25T14:18:12;10.48;;;3.33;;
59790;SDS011;47431;51.640;5.554;2023-11-25T14:20:38;8.02;;;2.00;;
59790;SDS011;47431;51.640;5.554;2023-11-25T14:23:03;11.30;;;2.88;;
59790;SDS011;47431;51.640;5.554;2023-11-25T14:25:30;11.07;;;2.85;;
59790;SDS011;47431;51.640;5.554;2023-11-25T14:27:55;9.20;;;1.80;;
59790;SDS011;47431;51.640;5.554;2023-11-25T14:30:21;9.65;;;2.63;;
59790;SDS011;47431;51.640;5.554;2023-11-25T14:32:48;11.38;;;3.20;;
59790;SDS011;47431;51.640;5.554;2023-11-25T14:35:14;12.30;;;2.85;;
59790;SDS011;47431;51.640;5.554;2023-11-25T14:37:40;16.75;;;3.92;;
59790;SDS011;47431;51.640;5.554;2023-11-25T14:40:07;10.48;;;2.25;;
59790;SDS011;47431;51.640;5.554;2023-11-25T14:42:35;21.10;;;3.67;;
59790;SDS011;47431;51.640;5.554;2023-11-25T14:45:01;10.68;;;2.53;;
59790;SDS011;47431;51.640;5.554;2023-11-25T14:47:27;13.85;;;2.45;;
59790;SDS011;47431;51.640;5.554;2023-11-25T14:49:53;12.77;;;2.45;;
59790;SDS011;47431;51.640;5.554;2023-11-25T14:52:18;14.55;;;3.40;;